Stockbridge, Georgia
Current Conditions -  °F | °C
As of 6:52 AM on Monday 22 Dec 2014 (Local Time) from KATL Reporting Station
Drizzle Drizzle  
Wind Chill: 40°   Ceiling: 300
Heat Index: 45°   Visibility: 0.5mi
Dew Point: 43°   Wind: 9mph
Humidity: 93%   Direction: 80°E
Pressure: 30.03"   Gusts: NA
Location:  33.54°N, 84.23°W
Report Text: KATL 221152Z 08008KT 1/2SM -DZ BR OVC003 07/06 A3003 RMK AO2 SFC VIS 1 1/2 SLP172 TWRINC P0000 60000 T00720061 10083 20072 55001
Loading
Personal Weather Stations






























Interactive Weather Map New forecast layout! Learn more

10-Day Weather Forecast

Advertisements
Track Severe Weather on mobile